KPTW

Heritage Field Airport

Pottstown, Pennsylvania, USA
METAR KPTW 151604Z AUTO 04005KT 2SM -RA BR OVC016 09/09 A3013 RMK AO2 P0001 T00890089
Observed Flight Rules
Dec-15 @ 16:04 UTC (14 minutes ago) Instrument Flight Rules
Wind Visibility Clouds Conditions
40° at 5 knots 2 miles
  • Overcast at 1,600' AGL
  • Light Rain
  • Mist
Temperatures Readings Precipitation
Current 9°C / 48°F
Dewpoint 9°C / 48°F
Humidity 100%
Altimeter 30.13" Hg
Pressure 1020 hPa
Elevation 92
Current Rain 0.01
METAR KPTW 151604Z AUTO 04005KT 2SM -RA BR OVC016 09/09 A3013 RMK AO2 P0001 T00890089
Observed Flight Rules
Dec-15 @ 16:04 UTC
(14 minutes ago)
IFR
Wind Visibility
40° at 5 knots 2 miles
Clouds
  • Overcast at 1,600' AGL
Conditions
  • Light Rain
  • Mist
Temperature Dewpoint
9°C / 48°F 9°C / 48°F
Humidity Altimeter Pressure
100% 30.13" Hg 1020 hPa
Current Rain
0.01